Piatra Neamt, Romania
Current Conditions -  °F | °C
As of 7:30 AM on Monday 22 Dec 2014 (Local Time) from LRBC Reporting Station
Clear Clear  
Wind Chill: 31°   Ceiling: Unl
Heat Index: 37°   Visibility: 6mi
Dew Point: 27°   Wind: 9mph
Humidity: 65%   Direction: 210°SSW
Pressure: 30.15"   Gusts: NA
Location:  46.92°N, 26.33°E
Report Text: LRBC 220530Z 21008KT CAVOK 03/M03 Q1021 R16/320195
Loading
Personal Weather Stations






























Interactive Weather Map New forecast layout! Learn more

10-Day Weather Forecast

Advertisements
Track Severe Weather on mobile